Time;durP1;ratioP1;P1;durP2;ratioP2;P2;SDS_P1;SDS_P2;PMS_P1;PMS_P2;Temp;Humidity;BMP_temperature;BMP_pressure;BME280_temperature;BME280_humidity;BME280_pressure;Samples;Min_cycle;Max_cycle;Signal;HPM_P1;HPM_P2
2024/04/07 12:47:00;;;;;;;6.40;2.70;;;;;;;28.14;30.42;100483.56;107796;1289;544461;-75
2024/04/07 12:49:29;;;;;;;4.40;3.00;;;;;;;28.24;28.23;100481.02;111437;1268;21911;-75
2024/04/07 12:52:00;;;;;;;;;;;;;;;28.28;27.84;100480.16;111578;1268;22349;-72
2024/04/07 12:54:29;;;;;;;3.70;1.80;;;;;;;28.20;27.82;100478.21;111546;1268;21908;-73
2024/04/07 12:56:58;;;;;;;4.30;1.70;;;;;;;28.23;27.45;100474.89;111470;1268;22189;-77
2024/04/07 12:59:29;;;;;;;3.30;1.90;;;;;;;28.27;26.81;100475.69;110836;1267;212543;-72
2024/04/07 13:02:01;;;;;;;3.60;1.80;;;;;;;28.33;27.05;100475.88;111230;1266;22195;-72
2024/04/07 13:04:31;;;;;;;3.80;2.20;;;;;;;28.41;27.15;100473.23;112079;1266;21869;-73
2024/04/07 13:07:00;;;;;;;7.60;1.70;;;;;;;28.50;26.97;100472.86;111778;1266;21888;-75
2024/04/07 13:09:29;;;;;;;2.80;2.10;;;;;;;28.59;26.94;100470.66;111144;1267;22364;-71
2024/04/07 13:12:00;;;;;;;3.30;2.00;;;;;;;28.60;26.66;100465.60;112055;1265;22197;-73
2024/04/07 13:14:31;;;;;;;2.60;2.10;;;;;;;28.59;26.56;100467.20;112077;1264;22418;-71
2024/04/07 13:17:00;;;;;;;3.00;2.00;;;;;;;28.56;26.34;100465.19;112997;1254;22326;-73
2024/04/07 13:19:29;;;;;;;2.60;1.60;;;;;;;28.52;26.41;100465.08;112980;1255;21912;-76
2024/04/07 13:21:57;;;;;;;3.70;2.50;;;;;;;28.51;26.45;100466.23;112695;1255;21877;-75
2024/04/07 13:24:26;;;;;;;4.90;2.40;;;;;;;28.52;26.71;100467.63;112839;1255;22318;-72
2024/04/07 13:26:56;;;;;;;3.10;1.90;;;;;;;28.57;26.76;100464.95;112874;1255;21873;-71
2024/04/07 13:29:24;;;;;;;5.00;2.30;;;;;;;28.62;26.79;100462.90;112777;1254;21895;-71
2024/04/07 13:31:53;;;;;;;5.90;2.50;;;;;;;28.72;26.68;100460.80;112969;1255;21842;-70
2024/04/07 13:34:22;;;;;;;5.00;2.40;;;;;;;28.79;26.49;100461.70;112988;1255;21861;-72
2024/04/07 13:36:50;;;;;;;3.40;2.20;;;;;;;28.85;26.70;100460.95;112981;1255;21926;-70
2024/04/07 13:39:19;;;;;;;3.40;2.00;;;;;;;28.90;26.74;100460.49;112821;1255;21890;-70
2024/04/07 13:41:48;;;;;;;3.90;3.00;;;;;;;28.91;26.59;100459.23;112700;1254;21897;-72
2024/04/07 13:44:16;;;;;;;7.50;2.40;;;;;;;28.90;26.70;100459.08;112811;1255;21823;-71
2024/04/07 13:46:52;;;;;;;3.80;2.80;;;;;;;28.88;26.58;100457.67;112977;1255;21892;-71
2024/04/07 13:49:22;;;;;;;2.70;2.10;;;;;;;28.88;26.92;100453.75;112833;1254;21881;-73
2024/04/07 13:51:51;;;;;;;3.40;2.10;;;;;;;28.89;26.79;100455.86;112669;1255;22368;-73
2024/04/07 13:54:19;;;;;;;3.70;2.10;;;;;;;28.93;26.74;100457.92;112992;1254;22348;-71
2024/04/07 13:56:48;;;;;;;3.30;2.70;;;;;;;28.94;26.70;100455.83;112978;1255;21872;-70
2024/04/07 13:59:16;;;;;;;3.50;1.90;;;;;;;28.92;26.71;100455.76;113029;1255;21917;-69
2024/04/07 14:01:45;;;;;;;6.40;2.40;;;;;;;28.87;26.39;100452.09;112863;1255;22227;-70
2024/04/07 14:04:14;;;;;;;3.20;1.70;;;;;;;28.78;26.17;100446.42;112994;1254;22200;-74
2024/04/07 14:06:42;;;;;;;2.80;1.90;;;;;;;28.71;26.21;100439.98;112997;1255;21894;-70
2024/04/07 14:09:11;;;;;;;2.60;1.60;;;;;;;28.65;26.09;100438.95;112981;1254;21910;-69
2024/04/07 14:11:41;;;;;;;3.60;2.50;;;;;;;28.57;26.11;100429.20;112995;1255;21844;-72
2024/04/07 14:14:10;;;;;;;4.00;2.20;;;;;;;28.52;26.23;100424.79;112996;1254;21873;-72
2024/04/07 14:16:42;;;;;;;2.80;1.60;;;;;;;28.50;26.31;100428.81;113028;1255;21908;-70
2024/04/07 14:19:11;;;;;;;3.90;2.30;;;;;;;28.47;26.22;100427.09;113015;1255;22324;-72
2024/04/07 14:21:39;;;;;;;3.60;2.00;;;;;;;28.47;26.31;100422.83;113006;1255;21872;-72
2024/04/07 14:24:08;;;;;;;4.00;2.20;;;;;;;28.44;26.27;100417.00;112990;1255;21916;-72
2024/04/07 14:26:37;;;;;;;3.80;2.90;;;;;;;28.40;26.16;100413.52;112908;1254;21886;-72
2024/04/07 14:29:06;;;;;;;3.70;2.10;;;;;;;28.38;26.23;100412.10;113006;1255;21890;-73
2024/04/07 14:31:35;;;;;;;4.70;2.10;;;;;;;28.35;26.35;100410.88;113012;1255;22316;-74
2024/04/07 14:34:05;;;;;;;3.60;2.50;;;;;;;28.32;26.28;100407.55;112977;1255;22340;-72
2024/04/07 14:36:51;;;;;;;5.60;3.80;;;;;;;28.26;25.80;100406.21;113006;1255;21921;-73
2024/04/07 14:39:20;;;;;;;4.50;3.20;;;;;;;28.21;26.02;100410.23;112846;1255;21872;-73
2024/04/07 14:41:50;;;;;;;5.90;2.40;;;;;;;28.19;26.76;100410.25;112713;1255;21891;-70
2024/04/07 14:44:19;;;;;;;3.60;2.40;;;;;;;28.15;27.07;100408.64;113027;1255;21866;-72
2024/04/07 14:46:48;;;;;;;6.00;3.30;;;;;;;28.13;27.51;100409.33;112970;1254;21943;-74
2024/04/07 14:49:16;;;;;;;6.00;3.30;;;;;;;28.10;27.87;100409.89;113011;1253;21918;-75
2024/04/07 14:51:45;;;;;;;3.60;2.50;;;;;;;28.09;28.35;100410.17;112562;1259;21972;-73
2024/04/07 14:54:14;;;;;;;4.50;2.60;;;;;;;28.07;28.51;100406.67;112603;1259;21900;-77
2024/04/07 14:56:42;;;;;;;3.60;2.50;;;;;;;28.04;28.82;100401.59;112575;1259;22276;-73
2024/04/07 14:59:11;;;;;;;6.80;2.90;;;;;;;28.03;29.04;100401.39;112624;1249;21907;-72
2024/04/07 15:01:40;;;;;;;4.30;2.70;;;;;;;28.01;29.21;100398.44;112615;1259;22365;-74
2024/04/07 15:04:08;;;;;;;5.40;3.00;;;;;;;28.00;29.46;100395.52;112603;1259;21777;-71
2024/04/07 15:06:37;;;;;;;6.80;2.40;;;;;;;28.00;29.58;100394.77;112622;1259;21882;-72
2024/04/07 15:09:06;;;;;;;4.50;2.70;;;;;;;27.97;29.83;100393.70;112599;1253;21904;-73
2024/04/07 15:11:35;;;;;;;6.90;3.40;;;;;;;27.95;29.94;100393.89;113024;1255;21924;-73
2024/04/07 15:14:04;;;;;;;4.80;2.90;;;;;;;27.94;30.00;100393.80;113012;1247;21912;-68
2024/04/07 15:16:34;;;;;;;6.40;3.20;;;;;;;27.93;30.20;100394.70;112992;1255;21919;-68
2024/04/07 15:19:03;;;;;;;10.30;3.60;;;;;;;27.94;30.18;100393.36;113022;1255;22314;-69
2024/04/07 15:21:31;;;;;;;6.60;3.70;;;;;;;27.95;30.29;100394.64;113020;1255;21857;-67
2024/04/07 15:24:00;;;;;;;4.80;3.40;;;;;;;27.95;30.49;100395.02;112995;1255;21885;-68
2024/04/07 15:26:29;;;;;;;5.70;4.60;;;;;;;27.91;30.74;100392.80;113017;1255;21883;-67
2024/04/07 15:28:58;;;;;;;5.30;3.20;;;;;;;27.86;30.94;100393.92;113020;1255;21932;-69
2024/04/07 15:31:26;;;;;;;4.90;2.70;;;;;;;27.79;30.96;100390.11;112906;1255;21889;-69
2024/04/07 15:33:55;;;;;;;5.80;3.90;;;;;;;27.75;31.27;100387.51;113012;1254;22355;-70
2024/04/07 15:36:23;;;;;;;7.80;3.80;;;;;;;27.70;31.46;100386.14;113019;1255;22249;-69
2024/04/07 15:38:52;;;;;;;7.10;4.10;;;;;;;27.64;31.52;100379.73;112981;1255;22162;-68
2024/04/07 15:41:21;;;;;;;5.30;3.30;;;;;;;27.59;31.58;100375.27;113026;1255;21896;-70
2024/04/07 15:43:49;;;;;;;4.80;3.00;;;;;;;27.53;31.81;100374.94;112408;1261;21853;-67
2024/04/07 15:46:19;;;;;;;4.10;3.40;;;;;;;27.45;31.74;100373.36;112515;1261;22290;-68
2024/04/07 15:48:48;;;;;;;5.10;3.30;;;;;;;27.37;32.05;100373.65;112477;1261;21902;-72
2024/04/07 15:51:17;;;;;;;6.60;4.00;;;;;;;27.32;32.29;100372.92;112476;1261;21916;-76
2024/04/07 15:53:46;;;;;;;7.70;3.80;;;;;;;27.27;32.48;100372.20;111535;1269;21851;-74
2024/04/07 15:56:14;;;;;;;5.50;3.50;;;;;;;27.23;32.59;100370.64;111606;1268;21827;-75
2024/04/07 15:58:44;;;;;;;5.20;3.20;;;;;;;27.18;32.86;100366.61;111218;1269;22272;-71
2024/04/07 16:01:12;;;;;;;5.70;2.90;;;;;;;27.13;33.02;100370.05;111594;1261;21929;-72
2024/04/07 16:03:41;;;;;;;4.30;3.00;;;;;;;27.08;33.14;100373.60;112504;1261;22275;-72
2024/04/07 16:06:10;;;;;;;7.70;3.40;;;;;;;26.99;33.40;100371.46;112502;1261;22409;-75
2024/04/07 16:08:39;;;;;;;7.80;3.60;;;;;;;26.91;33.44;100373.87;112507;1261;22294;-73
2024/04/07 16:11:07;;;;;;;9.10;7.10;;;;;;;26.86;33.64;100377.59;112560;1255;21900;-72
2024/04/07 16:13:36;;;;;;;5.00;3.80;;;;;;;26.83;33.82;100377.27;112539;1260;21895;-76
2024/04/07 16:16:05;;;;;;;6.60;4.50;;;;;;;26.81;33.86;100375.02;112582;1260;22326;-76
2024/04/07 16:18:34;;;;;;;5.90;4.30;;;;;;;26.79;33.93;100374.19;112557;1260;21818;-75
2024/04/07 16:21:03;;;;;;;6.20;4.70;;;;;;;26.75;33.91;100373.96;112444;1260;22333;-74
2024/04/07 16:23:31;;;;;;;12.10;5.30;;;;;;;26.71;34.09;100377.35;112576;1260;21817;-76
2024/04/07 16:26:00;;;;;;;8.10;6.50;;;;;;;26.67;34.26;100377.90;112583;1260;21903;-74
2024/04/07 16:28:28;;;;;;;7.80;6.00;;;;;;;26.57;34.47;100372.15;112548;1260;21973;-73
2024/04/07 16:31:06;;;;;;;9.50;6.70;;;;;;;26.49;34.65;100369.92;112601;1251;21849;-74
2024/04/07 16:33:37;;;;;;;7.80;6.50;;;;;;;26.41;34.88;100370.42;112999;1255;21926;-73
2024/04/07 16:36:05;;;;;;;12.20;9.70;;;;;;;26.39;35.11;100377.34;113020;1251;21869;-71
2024/04/07 16:38:34;;;;;;;8.60;6.60;;;;;;;26.35;35.09;100380.79;113015;1252;21877;-73
2024/04/07 16:41:03;;;;;;;8.00;6.30;;;;;;;26.29;35.24;100381.92;113043;1255;21854;-72
2024/04/07 16:43:32;;;;;;;9.60;7.60;;;;;;;26.24;35.47;100378.52;113012;1254;21838;-73
2024/04/07 16:46:00;;;;;;;9.30;7.90;;;;;;;26.16;35.67;100374.30;113010;1254;21897;-72
2024/04/07 16:48:29;;;;;;;9.50;8.50;;;;;;;26.08;35.93;100372.26;112996;1255;21901;-73
2024/04/07 16:51:01;;;;;;;8.70;7.70;;;;;;;25.99;36.14;100377.80;113016;1255;21908;-73
2024/04/07 16:53:29;;;;;;;10.60;7.60;;;;;;;25.91;36.35;100378.09;113003;1255;22343;-73
2024/04/07 16:55:58;;;;;;;8.80;6.30;;;;;;;25.84;36.65;100378.63;112997;1254;22128;-74
2024/04/07 16:58:27;;;;;;;11.60;7.80;;;;;;;25.77;36.83;100377.98;112996;1254;21897;-74
2024/04/07 17:00:56;;;;;;;15.60;7.70;;;;;;;25.69;37.04;100380.33;113012;1255;22254;-72
2024/04/07 17:03:25;;;;;;;11.70;7.10;;;;;;;25.59;37.12;100378.96;113016;1254;22390;-74
2024/04/07 17:05:53;;;;;;;10.70;6.60;;;;;;;25.51;37.40;100376.79;113040;1255;22246;-71
2024/04/07 17:08:22;;;;;;;9.20;7.10;;;;;;;25.46;37.51;100378.39;112988;1255;22309;-73
2024/04/07 17:10:51;;;;;;;16.10;9.90;;;;;;;25.40;37.76;100379.13;112999;1255;22342;-75
2024/04/07 17:13:30;;;;;;;15.00;11.10;;;;;;;25.35;37.77;100382.65;112831;1255;21913;-71
2024/04/07 17:15:59;;;;;;;15.80;9.20;;;;;;;25.28;37.86;100379.35;113029;1254;21914;-72
2024/04/07 17:18:28;;;;;;;9.70;8.70;;;;;;;25.22;37.97;100376.63;113004;1255;21834;-71
2024/04/07 17:20:57;;;;;;;9.20;6.60;;;;;;;25.17;38.14;100373.84;112848;1254;22204;-72
2024/04/07 17:23:26;;;;;;;9.80;7.50;;;;;;;25.11;38.30;100370.54;113008;1252;21804;-71
2024/04/07 17:25:56;;;;;;;13.60;9.70;;;;;;;25.03;38.53;100370.66;113029;1254;21864;-74
2024/04/07 17:28:24;;;;;;;12.20;10.00;;;;;;;24.97;38.73;100372.24;112844;1255;21910;-73
2024/04/07 17:30:55;;;;;;;14.20;10.40;;;;;;;24.89;39.02;100373.27;112810;1254;22204;-74
2024/04/07 17:33:24;;;;;;;13.60;8.80;;;;;;;24.81;39.35;100377.27;112999;1254;21968;-75
2024/04/07 17:35:52;;;;;;;10.60;8.20;;;;;;;24.73;39.49;100381.02;112852;1254;21892;-75
2024/04/07 17:38:21;;;;;;;14.40;10.00;;;;;;;24.67;39.69;100380.73;112997;1255;22329;-76
2024/04/07 17:40:51;;;;;;;14.80;10.40;;;;;;;24.61;39.80;100379.73;112791;1255;21847;-74
2024/04/07 17:43:20;;;;;;;16.90;10.30;;;;;;;24.52;39.89;100377.52;113080;1254;21880;-76
2024/04/07 17:45:48;;;;;;;20.20;12.80;;;;;;;24.43;40.13;100377.98;113006;1255;21945;-77
2024/04/07 17:48:17;;;;;;;20.30;12.00;;;;;;;24.34;40.41;100380.48;112844;1251;22186;-75
2024/04/07 17:50:47;;;;;;;12.60;9.70;;;;;;;24.26;40.68;100382.00;112810;1255;21811;-75
2024/04/07 17:53:18;;;;;;;15.00;10.60;;;;;;;24.18;40.89;100379.82;112731;1255;21897;-76
2024/04/07 17:55:48;;;;;;;12.40;9.90;;;;;;;24.12;41.09;100382.38;112783;1255;22217;-73
2024/04/07 17:58:21;;;;;;;11.20;8.90;;;;;;;24.02;41.35;100383.70;112776;1254;21958;-73
2024/04/07 18:00:50;;;;;;;9.30;7.70;;;;;;;23.94;41.39;100389.36;113042;1254;21934;-74
2024/04/07 18:03:18;;;;;;;12.20;8.40;;;;;;;23.88;41.53;100396.20;112989;1254;21880;-74
2024/04/07 18:05:48;;;;;;;15.30;11.00;;;;;;;23.81;41.78;100400.90;112830;1254;21884;-73
2024/04/07 18:08:17;;;;;;;16.40;11.60;;;;;;;23.75;41.91;100401.70;112948;1255;22211;-75
2024/04/07 18:10:46;;;;;;;14.40;9.30;;;;;;;23.72;42.04;100405.98;112975;1254;22233;-73
2024/04/07 18:13:18;;;;;;;14.00;9.00;;;;;;;23.67;42.22;100408.09;112833;1255;21873;-72
2024/04/07 18:15:47;;;;;;;11.90;9.30;;;;;;;23.59;42.37;100407.82;112889;1254;21875;-72
2024/04/07 18:18:16;;;;;;;13.50;9.40;;;;;;;23.52;42.37;100413.46;112796;1255;21968;-75
2024/04/07 18:20:45;;;;;;;19.00;17.00;;;;;;;23.51;42.51;100415.98;112724;1254;21901;-75
2024/04/07 18:23:14;;;;;;;17.20;14.30;;;;;;;23.42;42.59;100415.42;112714;1254;22183;-75
2024/04/07 18:25:43;;;;;;;14.90;10.70;;;;;;;23.35;42.68;100412.86;112989;1254;21911;-73
2024/04/07 18:28:11;;;;;;;13.50;10.40;;;;;;;23.29;42.89;100413.27;112829;1255;21907;-79
2024/04/07 18:30:40;;;;;;;15.30;10.70;;;;;;;23.23;42.93;100412.21;112971;1254;22277;-74
2024/04/07 18:33:09;;;;;;;16.30;11.60;;;;;;;23.19;43.12;100411.45;113007;1255;21886;-75
2024/04/07 18:35:37;;;;;;;15.30;10.40;;;;;;;23.15;43.23;100415.68;112993;1254;22266;-74
2024/04/07 18:38:07;;;;;;;22.00;11.40;;;;;;;23.11;43.26;100417.48;113019;1254;21877;-76
2024/04/07 18:40:36;;;;;;;29.60;24.50;;;;;;;23.06;43.60;100419.70;112988;1255;22426;-73
2024/04/07 18:43:05;;;;;;;24.40;16.70;;;;;;;23.02;43.86;100423.04;113020;1254;22301;-76
2024/04/07 18:45:34;;;;;;;19.30;15.10;;;;;;;22.97;44.08;100421.11;113009;1254;21904;-73
2024/04/07 18:48:04;;;;;;;18.40;15.20;;;;;;;22.90;44.01;100414.66;112955;1255;22413;-73
2024/04/07 18:50:33;;;;;;;22.90;16.00;;;;;;;22.81;44.12;100416.19;113008;1254;21863;-73
2024/04/07 18:53:01;;;;;;;17.80;14.70;;;;;;;22.74;44.34;100413.42;113024;1254;21970;-75
2024/04/07 18:55:34;;;;;;;20.20;15.60;;;;;;;22.67;44.59;100416.14;112987;1255;21869;-74
2024/04/07 18:58:02;;;;;;;49.50;44.40;;;;;;;22.58;44.84;100413.14;113009;1255;21965;-73
2024/04/07 19:00:31;;;;;;;20.90;17.10;;;;;;;22.52;45.06;100410.47;113008;1254;21890;-74
2024/04/07 19:03:07;;;;;;;19.30;16.70;;;;;;;22.48;45.03;100416.27;113007;1255;21917;-73
2024/04/07 19:05:35;;;;;;;24.80;17.60;;;;;;;22.45;45.40;100423.13;112985;1254;21918;-73
2024/04/07 19:08:04;;;;;;;27.10;20.10;;;;;;;22.40;45.73;100426.40;113008;1254;22248;-75
2024/04/07 19:10:33;;;;;;;26.70;19.20;;;;;;;22.34;45.93;100432.97;112988;1255;22212;-75
2024/04/07 19:13:02;;;;;;;30.90;26.20;;;;;;;22.28;46.27;100432.21;113012;1248;21908;-73
2024/04/07 19:15:31;;;;;;;28.60;21.50;;;;;;;22.21;46.75;100432.02;113030;1255;21882;-74
2024/04/07 19:18:00;;;;;;;30.80;22.30;;;;;;;22.13;47.15;100433.85;113026;1252;21855;-75
2024/04/07 19:20:28;;;;;;;25.30;20.50;;;;;;;22.03;47.45;100433.20;113047;1255;21813;-74
2024/04/07 19:22:57;;;;;;;27.40;21.10;;;;;;;21.94;47.63;100435.90;113020;1254;21875;-74
2024/04/07 19:25:25;;;;;;;18.70;16.70;;;;;;;21.85;48.03;100437.54;113026;1254;21877;-74
2024/04/07 19:27:54;;;;;;;19.90;16.40;;;;;;;21.74;48.24;100431.09;113019;1255;21853;-75
2024/04/07 19:30:23;;;;;;;22.80;14.90;;;;;;;21.64;48.40;100429.00;112991;1255;21920;-71
2024/04/07 19:32:52;;;;;;;14.60;12.40;;;;;;;21.60;48.41;100424.31;112848;1254;21869;-73
2024/04/07 19:35:25;;;;;;;21.70;13.60;;;;;;;21.52;48.41;100425.79;113024;1254;21886;-75
2024/04/07 19:37:55;;;;;;;30.00;15.50;;;;;;;21.50;48.37;100423.51;113037;1255;22356;-74
2024/04/07 19:40:23;;;;;;;24.70;14.80;;;;;;;21.47;48.83;100425.27;113028;1255;22329;-71
2024/04/07 19:42:52;;;;;;;19.30;15.10;;;;;;;21.39;49.38;100426.23;113019;1245;21830;-69
2024/04/07 19:45:20;;;;;;;19.70;15.00;;;;;;;21.31;49.35;100427.92;113020;1255;21911;-68
2024/04/07 19:47:49;;;;;;;20.40;14.50;;;;;;;21.21;49.64;100431.74;112981;1255;21871;-69
2024/04/07 19:50:18;;;;;;;20.90;15.50;;;;;;;21.11;49.89;100434.48;113019;1255;22321;-70
2024/04/07 19:52:51;;;;;;;19.60;15.20;;;;;;;21.02;49.97;100439.27;113022;1254;22488;-67
2024/04/07 19:55:23;;;;;;;20.20;14.90;;;;;;;20.96;50.01;100445.70;113016;1254;21867;-69
2024/04/07 19:57:52;;;;;;;15.70;11.90;;;;;;;20.91;49.93;100445.39;112991;1254;21920;-69
2024/04/07 20:00:20;;;;;;;15.50;10.60;;;;;;;20.85;49.72;100444.38;113043;1254;21829;-70
2024/04/07 20:02:53;;;;;;;15.50;12.40;;;;;;;20.81;49.71;100444.79;113052;1255;21926;-70
2024/04/07 20:05:22;;;;;;;17.20;12.60;;;;;;;20.79;49.65;100438.60;113035;1254;21916;-71
2024/04/07 20:07:50;;;;;;;18.50;14.40;;;;;;;20.75;49.96;100436.02;113004;1254;21883;-70
2024/04/07 20:10:19;;;;;;;14.90;12.70;;;;;;;20.73;50.07;100432.83;113009;1248;21848;-72
2024/04/07 20:12:48;;;;;;;15.40;13.10;;;;;;;20.69;50.11;100434.39;113033;1255;21869;-69
2024/04/07 20:15:16;;;;;;;23.50;13.70;;;;;;;20.64;50.32;100435.68;113000;1254;21863;-71
2024/04/07 20:17:45;;;;;;;17.20;12.90;;;;;;;20.62;50.63;100438.95;113039;1254;21902;-69
2024/04/07 20:20:16;;;;;;;20.60;13.90;;;;;;;20.59;50.71;100440.35;113011;1255;21862;-69
2024/04/07 20:22:44;;;;;;;21.60;14.30;;;;;;;20.54;50.88;100438.58;113053;1255;22263;-68
2024/04/07 20:25:15;;;;;;;17.40;14.40;;;;;;;20.47;51.08;100439.16;113009;1254;22299;-69
2024/04/07 20:27:43;;;;;;;20.60;14.30;;;;;;;20.39;51.49;100439.67;113030;1254;22320;-70
2024/04/07 20:30:12;;;;;;;23.90;14.80;;;;;;;20.32;51.82;100438.13;113011;1255;22170;-71
2024/04/07 20:32:43;;;;;;;23.80;15.10;;;;;;;20.25;51.98;100436.48;113018;1255;21875;-70
2024/04/07 20:35:11;;;;;;;15.60;13.80;;;;;;;20.20;52.23;100429.61;112988;1255;21901;-69
2024/04/07 20:37:42;;;;;;;20.60;14.70;;;;;;;20.13;52.44;100427.84;113003;1254;22382;-72
2024/04/07 20:40:11;;;;;;;18.70;14.50;;;;;;;20.08;52.53;100422.54;113052;1254;21932;-72
2024/04/07 20:42:39;;;;;;;21.80;14.00;;;;;;;20.02;52.63;100424.95;113036;1255;21867;-71
2024/04/07 20:45:08;;;;;;;20.30;13.50;;;;;;;19.97;52.79;100426.40;113012;1255;21871;-69
2024/04/07 20:47:37;;;;;;;20.60;13.60;;;;;;;19.93;53.03;100426.77;113023;1255;21890;-69
2024/04/07 20:50:08;;;;;;;19.90;14.40;;;;;;;19.89;53.24;100422.27;113015;1254;21861;-75
2024/04/07 20:52:37;;;;;;;19.40;15.00;;;;;;;19.83;53.50;100417.36;113027;1255;21929;-71
2024/04/07 20:55:06;;;;;;;19.50;15.00;;;;;;;19.78;53.77;100421.89;113038;1254;22183;-70
2024/04/07 20:57:35;;;;;;;19.50;15.90;;;;;;;19.71;54.01;100422.05;113019;1254;22358;-70
2024/04/07 21:00:04;;;;;;;20.10;15.20;;;;;;;19.62;54.07;100422.25;113011;1254;22252;-72
2024/04/07 21:02:33;;;;;;;19.20;14.00;;;;;;;19.53;54.16;100425.35;113011;1255;21880;-71
2024/04/07 21:05:03;;;;;;;17.90;13.60;;;;;;;19.48;54.44;100425.14;113033;1255;22273;-73
2024/04/07 21:07:33;;;;;;;19.10;15.70;;;;;;;19.45;54.75;100417.46;113030;1255;22300;-70
2024/04/07 21:10:03;;;;;;;24.40;15.70;;;;;;;19.41;54.73;100415.55;113033;1254;22467;-71
2024/04/07 21:12:32;;;;;;;17.50;15.00;;;;;;;19.38;54.94;100412.15;113028;1254;21901;-70
2024/04/07 21:15:01;;;;;;;20.70;15.00;;;;;;;19.33;55.14;100410.14;113022;1255;22239;-71
2024/04/07 21:17:30;;;;;;;17.70;15.40;;;;;;;19.28;55.28;100407.98;113034;1254;21874;-72
2024/04/07 21:19:59;;;;;;;19.50;15.80;;;;;;;19.24;55.46;100409.70;113009;1255;22404;-71
2024/04/07 21:22:27;;;;;;;22.60;15.20;;;;;;;19.20;55.66;100412.48;113019;1248;21882;-72
2024/04/07 21:24:56;;;;;;;20.70;16.80;;;;;;;19.14;55.80;100417.34;112852;1255;21862;-73
2024/04/07 21:27:29;;;;;;;21.50;17.20;;;;;;;19.09;56.04;100418.14;113025;1255;21857;-73
2024/04/07 21:29:57;;;;;;;26.00;16.90;;;;;;;19.04;56.14;100414.73;113005;1254;21869;-70
2024/04/07 21:32:26;;;;;;;24.40;17.80;;;;;;;18.98;56.34;100413.70;113020;1255;21866;-71
2024/04/07 21:34:55;;;;;;;24.00;16.10;;;;;;;18.91;56.49;100410.16;113028;1255;21886;-70
2024/04/07 21:37:23;;;;;;;74.00;65.90;;;;;;;18.84;56.82;100407.11;113016;1254;21867;-72
2024/04/07 21:39:52;;;;;;;34.30;28.40;;;;;;;18.80;56.97;100407.33;112990;1255;22576;-71
2024/04/07 21:42:20;;;;;;;27.00;19.10;;;;;;;18.76;57.10;100409.60;113006;1254;21878;-72
2024/04/07 21:44:49;;;;;;;27.30;18.70;;;;;;;18.68;57.33;100403.93;113020;1254;21901;-72
2024/04/07 21:47:17;;;;;;;32.70;22.30;;;;;;;18.64;57.49;100401.86;113001;1255;21863;-69
2024/04/07 21:49:46;;;;;;;37.40;25.90;;;;;;;18.60;57.47;100402.27;112997;1255;21855;-70
2024/04/07 21:52:15;;;;;;;36.30;25.60;;;;;;;18.54;57.84;100398.37;113001;1254;21913;-70
2024/04/07 21:54:43;;;;;;;42.70;27.60;;;;;;;18.48;58.01;100397.27;113015;1254;21856;-73
2024/04/07 21:57:12;;;;;;;36.20;25.00;;;;;;;18.46;58.02;100392.84;113045;1254;22306;-70
2024/04/07 21:59:40;;;;;;;35.10;24.90;;;;;;;18.47;58.10;100392.33;113053;1255;22244;-71
2024/04/07 22:02:09;;;;;;;38.70;25.60;;;;;;;18.50;58.08;100387.79;113042;1255;21818;-70
2024/04/07 22:04:38;;;;;;;34.50;23.60;;;;;;;18.48;58.18;100385.14;113054;1254;21905;-71
2024/04/07 22:07:07;;;;;;;33.10;23.80;;;;;;;18.47;58.11;100381.33;113066;1255;22385;-70
2024/04/07 22:09:35;;;;;;;38.70;24.90;;;;;;;18.46;58.26;100375.83;113042;1248;21868;-70
2024/04/07 22:12:05;;;;;;;33.10;23.30;;;;;;;18.46;58.22;100376.96;113036;1255;21934;-70
2024/04/07 22:14:33;;;;;;;28.70;20.50;;;;;;;18.45;58.11;100380.96;113040;1255;22333;-70
2024/04/07 22:17:03;;;;;;;33.30;21.90;;;;;;;18.42;58.10;100382.69;113038;1255;21886;-70
2024/04/07 22:19:32;;;;;;;27.40;20.40;;;;;;;18.37;58.20;100382.48;113030;1254;21910;-70
2024/04/07 22:22:00;;;;;;;26.70;20.50;;;;;;;18.32;58.41;100384.30;113025;1254;21871;-69
2024/04/07 22:24:29;;;;;;;29.00;19.20;;;;;;;18.27;58.48;100384.73;113053;1255;21838;-70
2024/04/07 22:26:59;;;;;;;24.50;20.20;;;;;;;18.24;58.59;100387.77;113044;1255;21837;-71
2024/04/07 22:29:28;;;;;;;23.10;18.70;;;;;;;18.21;58.73;100387.15;113054;1255;21820;-69
2024/04/07 22:31:56;;;;;;;24.20;19.50;;;;;;;18.16;58.89;100379.33;113027;1255;21911;-69
2024/04/07 22:34:25;;;;;;;26.00;20.00;;;;;;;18.08;59.26;100380.84;113035;1255;22302;-70
2024/04/07 22:36:54;;;;;;;26.90;21.40;;;;;;;18.05;59.38;100380.40;113048;1255;21844;-70
2024/04/07 22:39:23;;;;;;;27.40;19.80;;;;;;;18.06;59.47;100380.57;113029;1255;21868;-71
2024/04/07 22:41:52;;;;;;;30.10;22.50;;;;;;;18.07;59.35;100378.25;113038;1255;21897;-70
2024/04/07 22:44:21;;;;;;;26.80;21.20;;;;;;;18.06;59.53;100380.92;113048;1255;22269;-73
2024/04/07 22:46:50;;;;;;;29.20;21.60;;;;;;;18.02;59.54;100387.69;113032;1254;22401;-72
2024/04/07 22:49:20;;;;;;;32.90;22.50;;;;;;;17.98;59.76;100388.45;113031;1255;22191;-72
2024/04/07 22:51:49;;;;;;;32.30;21.40;;;;;;;17.94;59.80;100390.98;113046;1254;21902;-72
2024/04/07 22:54:18;;;;;;;25.30;21.20;;;;;;;17.93;59.99;100392.19;113021;1255;21915;-70
2024/04/07 22:56:49;;;;;;;28.30;21.00;;;;;;;17.94;59.98;100391.13;113020;1254;22359;-69
2024/04/07 22:59:19;;;;;;;27.20;20.40;;;;;;;17.94;59.90;100389.58;112885;1255;21909;-69
2024/04/07 23:01:48;;;;;;;29.10;22.20;;;;;;;17.94;60.06;100388.67;113056;1254;21903;-68
2024/04/07 23:04:19;;;;;;;32.80;21.40;;;;;;;17.94;60.05;100389.52;113065;1254;21847;-69
2024/04/07 23:06:48;;;;;;;;;;;;;;;17.90;60.00;100392.77;113046;1255;21841;-71
2024/04/07 23:09:17;;;;;;;27.20;20.50;;;;;;;17.70;60.44;100390.67;113039;1254;21898;-69
2024/04/07 23:11:46;;;;;;;28.00;20.30;;;;;;;17.67;60.51;100390.66;113069;1255;22409;-69
2024/04/07 23:14:14;;;;;;;26.40;21.20;;;;;;;17.66;60.81;100389.67;113062;1254;21923;-68
2024/04/07 23:16:43;;;;;;;27.40;20.90;;;;;;;17.65;60.89;100385.70;113031;1255;21907;-71
2024/04/07 23:19:13;;;;;;;29.70;22.80;;;;;;;17.65;60.86;100380.84;112907;1255;22346;-68
2024/04/07 23:21:41;;;;;;;30.80;22.80;;;;;;;17.65;60.93;100379.64;113062;1254;22241;-69
2024/04/07 23:24:10;;;;;;;27.20;20.90;;;;;;;17.64;61.12;100381.11;113046;1254;21896;-68
2024/04/07 23:26:38;;;;;;;24.90;20.70;;;;;;;17.62;61.00;100379.04;113026;1255;21846;-67
2024/04/07 23:29:09;;;;;;;27.90;21.20;;;;;;;17.58;61.16;100381.94;113024;1255;21802;-69
2024/04/07 23:31:39;;;;;;;28.20;21.20;;;;;;;17.52;61.29;100382.82;113053;1254;22223;-70
2024/04/07 23:34:08;;;;;;;30.80;20.20;;;;;;;17.50;61.29;100383.06;113030;1254;21844;-70
2024/04/07 23:36:36;;;;;;;27.40;22.20;;;;;;;17.48;61.38;100381.98;113001;1255;21903;-70
2024/04/07 23:39:05;;;;;;;33.40;22.50;;;;;;;17.47;61.44;100383.00;113043;1255;22331;-69
2024/04/07 23:41:35;;;;;;;28.70;22.00;;;;;;;17.45;61.62;100389.27;113063;1255;21874;-69
2024/04/07 23:44:04;;;;;;;34.20;24.40;;;;;;;17.42;61.52;100393.06;113010;1254;22394;-69
2024/04/07 23:46:32;;;;;;;28.00;23.40;;;;;;;17.38;61.78;100390.84;113035;1254;21915;-70
2024/04/07 23:49:02;;;;;;;42.10;26.00;;;;;;;17.32;61.91;100380.85;113025;1255;21939;-70
2024/04/07 23:51:31;;;;;;;32.70;24.60;;;;;;;17.30;61.94;100375.80;113053;1255;21862;-68
2024/04/07 23:53:59;;;;;;;32.20;24.70;;;;;;;17.25;62.21;100370.68;113033;1255;21878;-69
2024/04/07 23:56:28;;;;;;;31.50;23.20;;;;;;;17.21;62.43;100372.88;113048;1255;21864;-69
2024/04/07 23:58:57;;;;;;;32.30;21.20;;;;;;;17.17;62.64;100373.32;113031;1255;22339;-68
